Time;durP1;ratioP1;P1;durP2;ratioP2;P2;SDS_P1;SDS_P2;PMS_P1;PMS_P2;Temp;Humidity;BMP_temperature;BMP_pressure;BME280_temperature;BME280_humidity;BME280_pressure;Samples;Min_cycle;Max_cycle;Signal;HPM_P1;HPM_P2
2023/05/05 00:00:44;;;;;;;18.45;10.15;;;;;;;;;;5074766;28;20049;-76
2023/05/05 00:03:10;;;;;;;19.98;10.40;;;;;;;;;;5073746;28;20049;-76
2023/05/05 00:05:36;;;;;;;17.00;10.07;;;;;;;;;;5072238;28;20052;-76
2023/05/05 00:08:03;;;;;;;17.67;10.13;;;;;;;;;;5074196;28;20506;-76
2023/05/05 00:10:29;;;;;;;16.73;9.90;;;;;;;;;;5068606;28;20053;-76
2023/05/05 00:12:56;;;;;;;15.00;8.85;;;;;;;;;;5074014;28;20048;-76
2023/05/05 00:15:22;;;;;;;16.75;10.20;;;;;;;;;;5065197;28;20055;-76
2023/05/05 00:17:49;;;;;;;16.20;9.55;;;;;;;;;;5074400;28;20127;-76
2023/05/05 00:20:15;;;;;;;16.33;9.25;;;;;;;;;;5064318;28;20459;-76
2023/05/05 00:22:41;;;;;;;12.82;8.20;;;;;;;;;;5069823;28;20071;-76
2023/05/05 00:25:08;;;;;;;13.55;7.55;;;;;;;;;;5065363;28;20044;-76
2023/05/05 00:27:34;;;;;;;18.30;9.15;;;;;;;;;;5074988;28;20135;-77
2023/05/05 00:30:01;;;;;;;14.30;8.10;;;;;;;;;;5065821;28;20201;-77
2023/05/05 00:32:27;;;;;;;16.17;9.02;;;;;;;;;;5074270;28;20055;-77
2023/05/05 00:34:55;;;;;;;19.30;9.27;;;;;;;;;;5059407;28;20063;-77
2023/05/05 00:37:21;;;;;;;17.58;8.77;;;;;;;;;;5073638;28;20048;-77
2023/05/05 00:39:47;;;;;;;18.52;9.15;;;;;;;;;;5064148;28;20515;-77
2023/05/05 00:42:14;;;;;;;11.65;7.28;;;;;;;;;;5074558;28;20054;-76
2023/05/05 00:44:41;;;;;;;14.45;6.72;;;;;;;;;;5055684;28;20055;-76
2023/05/05 00:47:11;;;;;;;17.30;7.43;;;;;;;;;;5074724;28;20041;-76
2023/05/05 00:49:38;;;;;;;17.73;6.28;;;;;;;;;;5059321;28;20136;-76
2023/05/05 00:52:06;;;;;;;17.52;6.97;;;;;;;;;;5073605;28;20055;-76
2023/05/05 00:54:36;;;;;;;11.90;7.15;;;;;;;;;;5061758;28;20343;-76
2023/05/05 00:57:02;;;;;;;17.02;8.20;;;;;;;;;;5072166;28;20040;-76
2023/05/05 00:59:30;;;;;;;17.13;7.47;;;;;;;;;;5071339;28;20041;-76
2023/05/05 01:01:56;;;;;;;17.15;7.03;;;;;;;;;;5073877;28;20048;-76
2023/05/05 01:04:23;;;;;;;14.20;7.38;;;;;;;;;;5068747;28;20079;-76
2023/05/05 01:06:49;;;;;;;11.07;6.07;;;;;;;;;;5074040;28;20044;-76
2023/05/05 01:09:35;;;;;;;15.18;6.50;;;;;;;;;;5067007;28;20052;-76
2023/05/05 01:12:01;;;;;;;14.55;5.68;;;;;;;;;;5071878;28;20048;-76
2023/05/05 01:14:36;;;;;;;14.20;6.38;;;;;;;;;;5068908;28;20488;-76
2023/05/05 01:17:11;;;;;;;17.42;6.25;;;;;;;;;;5073839;28;20265;-76
2023/05/05 01:19:49;;;;;;;10.48;5.82;;;;;;;;;;5067025;28;20059;-76
2023/05/05 01:22:18;;;;;;;11.88;6.15;;;;;;;;;;5072939;28;20044;-76
2023/05/05 01:25:03;;;;;;;17.15;6.65;;;;;;;;;;5066539;28;20162;-77
2023/05/05 01:27:49;;;;;;;13.20;6.75;;;;;;;;;;5072109;28;20041;-77
2023/05/05 01:30:30;;;;;;;18.05;7.80;;;;;;;;;;5059357;28;20051;-77
2023/05/05 01:33:18;;;;;;;13.48;6.70;;;;;;;;;;5073293;28;20510;-76
2023/05/05 01:35:47;;;;;;;16.30;6.80;;;;;;;;;;5062768;28;20140;-77
2023/05/05 01:38:15;;;;;;;12.52;6.72;;;;;;;;;;5071451;28;20135;-76
2023/05/05 01:40:42;;;;;;;;;;;;;;;;;;5059796;28;20158;-77
2023/05/05 01:43:09;;;;;;;13.52;6.15;;;;;;;;;;5072211;28;19924;-77
2023/05/05 01:45:37;;;;;;;11.02;5.68;;;;;;;;;;5056170;28;20559;-77
2023/05/05 01:48:05;;;;;;;15.55;6.18;;;;;;;;;;5073044;28;20052;-77
2023/05/05 01:50:32;;;;;;;16.45;5.82;;;;;;;;;;5058259;28;20407;-77
2023/05/05 01:53:00;;;;;;;18.63;6.70;;;;;;;;;;5073109;28;20131;-77
2023/05/05 01:55:27;;;;;;;14.82;6.45;;;;;;;;;;5054099;28;20051;-77
2023/05/05 01:57:54;;;;;;;16.38;6.95;;;;;;;;;;5071193;28;20063;-77
2023/05/05 02:00:21;;;;;;;;;;;;;;;;;;5069720;28;20139;-77
2023/05/05 02:02:48;;;;;;;15.02;6.60;;;;;;;;;;5071880;28;19931;-77
2023/05/05 02:05:18;;;;;;;17.35;6.80;;;;;;;;;;5069314;28;20040;-77
2023/05/05 02:07:44;;;;;;;19.88;7.50;;;;;;;;;;5073274;28;20041;-77
2023/05/05 02:10:12;;;;;;;17.23;6.55;;;;;;;;;;5067806;28;20165;-77
2023/05/05 02:12:39;;;;;;;16.52;5.93;;;;;;;;;;5072885;28;20062;-77
2023/05/05 02:15:07;;;;;;;12.98;5.63;;;;;;;;;;5066578;28;20048;-77
2023/05/05 02:17:33;;;;;;;16.27;6.30;;;;;;;;;;5072285;28;20531;-77
2023/05/05 02:20:00;;;;;;;14.80;6.32;;;;;;;;;;5066046;28;20454;-77
2023/05/05 02:22:27;;;;;;;12.98;5.78;;;;;;;;;;5072606;28;20040;-77
2023/05/05 02:24:53;;;;;;;15.45;5.75;;;;;;;;;;5065232;28;20064;-77
2023/05/05 02:27:21;;;;;;;15.80;6.13;;;;;;;;;;5070985;28;20084;-76
2023/05/05 02:29:50;;;;;;;12.48;5.68;;;;;;;;;;5058871;28;20056;-76
2023/05/05 02:32:19;;;;;;;14.75;5.65;;;;;;;;;;5065295;28;20050;-76
2023/05/05 02:34:46;;;;;;;15.05;5.45;;;;;;;;;;5067314;28;20074;-76
2023/05/05 02:37:16;;;;;;;19.90;6.60;;;;;;;;;;5071313;28;20063;-76
2023/05/05 02:40:03;;;;;;;15.57;5.90;;;;;;;;;;5063534;28;20389;-77
2023/05/05 02:42:32;;;;;;;13.20;5.72;;;;;;;;;;5071892;28;20052;-76
2023/05/05 02:45:03;;;;;;;14.70;5.60;;;;;;;;;;5069272;28;20049;-77
2023/05/05 02:47:36;;;;;;;14.43;4.80;;;;;;;;;;5071349;28;20062;-77
2023/05/05 02:50:04;;;;;;;14.57;5.50;;;;;;;;;;5066699;28;20087;-77
2023/05/05 02:52:30;;;;;;;;;;;;;;;;;;5072455;28;20056;-77
2023/05/05 02:54:57;;;;;;;14.63;5.80;;;;;;;;;;5067410;28;19932;-77
2023/05/05 02:57:36;;;;;;;19.77;6.50;;;;;;;;;;5071997;28;20498;-77
2023/05/05 03:00:21;;;;;;;20.80;6.72;;;;;;;;;;5063030;28;20061;-76
2023/05/05 03:02:59;;;;;;;19.65;6.50;;;;;;;;;;5071757;28;20132;-74
2023/05/05 03:05:33;;;;;;;21.52;7.00;;;;;;;;;;5065097;28;20052;-74
2023/05/05 03:08:12;;;;;;;16.23;7.47;;;;;;;;;;5071959;28;20044;-74
2023/05/05 03:10:43;;;;;;;18.27;7.15;;;;;;;;;;5061493;28;20056;-74
2023/05/05 03:13:10;;;;;;;15.25;7.07;;;;;;;;;;5070741;28;20131;-75
2023/05/05 03:15:40;;;;;;;23.13;8.02;;;;;;;;;;5059429;28;20060;-76
2023/05/05 03:18:07;;;;;;;16.38;7.75;;;;;;;;;;5071288;28;20051;-76
2023/05/05 03:20:34;;;;;;;16.92;7.80;;;;;;;;;;5062891;28;20044;-76
2023/05/05 03:23:01;;;;;;;21.80;7.70;;;;;;;;;;5071342;28;20449;-76
2023/05/05 03:25:40;;;;;;;18.83;7.63;;;;;;;;;;5053148;28;20513;-76
2023/05/05 03:28:06;;;;;;;20.30;7.80;;;;;;;;;;5070740;28;20080;-76
2023/05/05 03:30:33;;;;;;;18.20;7.25;;;;;;;;;;5061554;28;20137;-76
2023/05/05 03:32:59;;;;;;;22.65;7.43;;;;;;;;;;5071594;28;20048;-75
2023/05/05 03:35:25;;;;;;;16.77;7.75;;;;;;;;;;5050414;28;20086;-75
2023/05/05 03:37:54;;;;;;;15.00;7.40;;;;;;;;;;5071962;28;20055;-76
2023/05/05 03:40:21;;;;;;;11.45;5.97;;;;;;;;;;5057818;28;20114;-76
2023/05/05 03:43:01;;;;;;;10.93;5.45;;;;;;;;;;5071654;28;20102;-76
2023/05/05 03:45:28;;;;;;;10.27;4.43;;;;;;;;;;5045094;28;20072;-75
2023/05/05 03:47:54;;;;;;;9.10;4.28;;;;;;;;;;5071436;28;20526;-76
2023/05/05 03:50:23;;;;;;;6.53;3.35;;;;;;;;;;5042266;28;20053;-76
2023/05/05 03:52:49;;;;;;;7.00;3.38;;;;;;;;;;5068577;28;20052;-76
2023/05/05 03:55:15;;;;;;;5.57;3.30;;;;;;;;;;5069524;28;20053;-76
2023/05/05 03:57:42;;;;;;;8.23;3.60;;;;;;;;;;5070956;28;20045;-76
2023/05/05 04:00:11;;;;;;;8.48;3.45;;;;;;;;;;5067355;28;20048;-76
2023/05/05 04:02:37;;;;;;;7.28;3.92;;;;;;;;;;5071507;28;20529;-76
2023/05/05 04:05:04;;;;;;;8.80;4.47;;;;;;;;;;5067398;28;20132;-76
2023/05/05 04:07:30;;;;;;;9.43;4.93;;;;;;;;;;5071452;28;20044;-76
2023/05/05 04:09:57;;;;;;;11.00;4.68;;;;;;;;;;5064300;28;20194;-76
2023/05/05 04:12:23;;;;;;;11.82;5.05;;;;;;;;;;5070860;28;20503;-76
2023/05/05 04:14:50;;;;;;;13.52;4.72;;;;;;;;;;5062495;28;20587;-76
2023/05/05 04:17:16;;;;;;;12.05;4.93;;;;;;;;;;5070515;28;20131;-76
2023/05/05 04:19:42;;;;;;;12.95;4.65;;;;;;;;;;5064331;28;20044;-76
2023/05/05 04:22:09;;;;;;;9.52;4.30;;;;;;;;;;5070781;28;20135;-76
2023/05/05 04:24:36;;;;;;;9.90;4.10;;;;;;;;;;5064442;28;20087;-76
2023/05/05 04:27:02;;;;;;;10.68;4.18;;;;;;;;;;5071072;28;20557;-76
2023/05/05 04:29:28;;;;;;;10.38;4.35;;;;;;;;;;5062411;28;20044;-76
2023/05/05 04:31:55;;;;;;;9.18;3.90;;;;;;;;;;5069843;28;20503;-76
2023/05/05 04:34:22;;;;;;;11.73;4.20;;;;;;;;;;5061171;28;20131;-76
2023/05/05 04:36:48;;;;;;;11.48;4.13;;;;;;;;;;5072098;28;20155;-76
2023/05/05 04:39:14;;;;;;;12.02;4.30;;;;;;;;;;5064667;28;20056;-76
2023/05/05 04:41:41;;;;;;;12.02;4.10;;;;;;;;;;5072676;28;20044;-76
2023/05/05 04:44:07;;;;;;;10.30;4.82;;;;;;;;;;5064571;28;20041;-77
2023/05/05 04:46:34;;;;;;;7.50;4.05;;;;;;;;;;5069667;28;20403;-76
2023/05/05 04:49:02;;;;;;;8.10;4.07;;;;;;;;;;5059566;28;20053;-76
2023/05/05 04:51:28;;;;;;;12.13;4.30;;;;;;;;;;5061059;28;20048;-76
2023/05/05 04:53:54;;;;;;;11.88;4.80;;;;;;;;;;5072327;28;20056;-76
2023/05/05 04:56:21;;;;;;;10.57;4.68;;;;;;;;;;5074221;28;20084;-76
2023/05/05 04:58:48;;;;;;;11.75;4.60;;;;;;;;;;5070908;28;20045;-76
2023/05/05 05:01:15;;;;;;;9.65;5.05;;;;;;;;;;5072176;28;20052;-76
2023/05/05 05:03:42;;;;;;;11.05;5.10;;;;;;;;;;5069149;28;20049;-76
2023/05/05 05:06:08;;;;;;;12.57;6.20;;;;;;;;;;5072727;28;20080;-77
2023/05/05 05:08:35;;;;;;;12.07;5.82;;;;;;;;;;5066767;28;20144;-77
2023/05/05 05:11:01;;;;;;;14.93;6.45;;;;;;;;;;5073466;28;20070;-77
2023/05/05 05:13:28;;;;;;;16.23;5.97;;;;;;;;;;5069514;28;20042;-77
2023/05/05 05:15:54;;;;;;;15.05;6.13;;;;;;;;;;5072946;28;20051;-77
2023/05/05 05:18:20;;;;;;;15.52;5.72;;;;;;;;;;5069602;28;20055;-77
2023/05/05 05:20:47;;;;;;;19.05;6.63;;;;;;;;;;5067155;28;20044;-77
2023/05/05 05:23:13;;;;;;;18.45;6.47;;;;;;;;;;5070394;28;20045;-77
2023/05/05 05:25:39;;;;;;;19.80;6.60;;;;;;;;;;5069047;28;20044;-77
2023/05/05 05:28:06;;;;;;;17.73;7.28;;;;;;;;;;5073106;28;20052;-76
2023/05/05 05:30:36;;;;;;;16.73;6.57;;;;;;;;;;5061691;28;20459;-77
2023/05/05 05:33:02;;;;;;;17.98;6.95;;;;;;;;;;5073763;28;20048;-77
2023/05/05 05:35:30;;;;;;;16.92;7.10;;;;;;;;;;5064754;28;20057;-76
2023/05/05 05:37:56;;;;;;;14.18;7.50;;;;;;;;;;5072113;28;20477;-76
2023/05/05 05:40:23;;;;;;;17.35;7.57;;;;;;;;;;5063403;28;20046;-76
2023/05/05 05:42:49;;;;;;;21.20;8.57;;;;;;;;;;5073539;28;20446;-76
2023/05/05 05:45:16;;;;;;;17.40;7.78;;;;;;;;;;5058368;28;20067;-76
2023/05/05 05:47:42;;;;;;;14.93;8.20;;;;;;;;;;5073109;28;20130;-76
2023/05/05 05:50:09;;;;;;;16.45;8.30;;;;;;;;;;5044506;28;20503;-76
2023/05/05 05:52:35;;;;;;;19.30;8.27;;;;;;;;;;5073198;28;20132;-77
2023/05/05 05:55:02;;;;;;;15.98;8.85;;;;;;;;;;5070895;28;20055;-76
2023/05/05 05:57:28;;;;;;;15.88;8.38;;;;;;;;;;5073161;28;20396;-76
2023/05/05 05:59:55;;;;;;;16.83;7.95;;;;;;;;;;5069827;28;20114;-77
2023/05/05 06:02:21;;;;;;;20.88;9.15;;;;;;;;;;5073007;28;20040;-77
2023/05/05 06:04:48;;;;;;;22.42;9.77;;;;;;;;;;5068991;28;20446;-77
2023/05/05 06:07:14;;;;;;;17.55;9.90;;;;;;;;;;5072900;28;20492;-76
2023/05/05 06:09:41;;;;;;;17.90;9.63;;;;;;;;;;5067877;28;20450;-76
2023/05/05 06:12:07;;;;;;;18.65;10.10;;;;;;;;;;5072932;28;20056;-77
2023/05/05 06:14:33;;;;;;;17.15;9.52;;;;;;;;;;5064626;28;20048;-77
2023/05/05 06:17:00;;;;;;;17.25;10.00;;;;;;;;;;5058017;28;20499;-77
2023/05/05 06:19:26;;;;;;;16.98;9.80;;;;;;;;;;5051647;28;20129;-76
2023/05/05 06:21:53;;;;;;;14.73;8.68;;;;;;;;;;5052360;28;20071;-78
2023/05/05 06:24:19;;;;;;;18.10;8.38;;;;;;;;;;5064097;28;20047;-77
2023/05/05 06:26:45;;;;;;;15.82;8.20;;;;;;;;;;5072494;28;20506;-77
2023/05/05 06:29:12;;;;;;;14.00;7.57;;;;;;;;;;5064241;28;20053;-77
2023/05/05 06:31:38;;;;;;;15.43;7.35;;;;;;;;;;5065326;28;20480;-78
2023/05/05 06:34:05;;;;;;;14.93;6.57;;;;;;;;;;5044580;28;20102;-79
2023/05/05 06:36:31;;;;;;;16.42;6.50;;;;;;;;;;5048815;28;20140;-79
2023/05/05 06:38:57;;;;;;;12.88;6.25;;;;;;;;;;5051680;28;20051;-78
2023/05/05 06:41:24;;;;;;;14.05;5.32;;;;;;;;;;5066583;28;20036;-78
2023/05/05 06:43:50;;;;;;;10.25;4.75;;;;;;;;;;5064558;28;20117;-78
2023/05/05 06:46:17;;;;;;;11.60;4.95;;;;;;;;;;5054305;28;20055;-78
2023/05/05 06:48:43;;;;;;;10.70;4.90;;;;;;;;;;5047062;28;20053;-78
2023/05/05 06:51:10;;;;;;;9.98;4.93;;;;;;;;;;5047628;28;20048;-77
2023/05/05 06:53:36;;;;;;;10.77;5.00;;;;;;;;;;5053092;28;20515;-77
2023/05/05 06:56:02;;;;;;;16.77;5.05;;;;;;;;;;5062045;28;20450;-77
2023/05/05 06:58:30;;;;;;;16.10;4.53;;;;;;;;;;5051415;28;20083;-77
2023/05/05 07:00:56;;;;;;;11.00;4.50;;;;;;;;;;5044145;28;20092;-78
2023/05/05 07:03:23;;;;;;;13.30;4.50;;;;;;;;;;5068180;28;20098;-77
2023/05/05 07:05:50;;;;;;;13.10;4.75;;;;;;;;;;5064063;28;20059;-80
2023/05/05 07:08:16;;;;;;;9.38;3.85;;;;;;;;;;5053162;28;20131;-79
2023/05/05 07:10:43;;;;;;;11.93;4.53;;;;;;;;;;5059977;28;20091;-79
2023/05/05 07:13:09;;;;;;;9.95;3.78;;;;;;;;;;5056805;28;20385;-78
2023/05/05 07:15:36;;;;;;;12.68;4.65;;;;;;;;;;5040589;28;20059;-78
2023/05/05 07:18:02;;;;;;;8.32;4.20;;;;;;;;;;5051169;28;20468;-77
2023/05/05 07:20:28;;;;;;;9.35;4.47;;;;;;;;;;5042029;28;20052;-77
2023/05/05 07:22:55;;;;;;;11.55;4.15;;;;;;;;;;5051353;28;20552;-78
2023/05/05 07:25:21;;;;;;;12.13;4.47;;;;;;;;;;5053263;28;20511;-76
2023/05/05 07:27:47;;;;;;;12.88;4.80;;;;;;;;;;5050987;28;20477;-76
2023/05/05 07:30:14;;;;;;;7.40;4.22;;;;;;;;;;5045962;28;20083;-76
2023/05/05 07:32:44;;;;;;;9.82;4.50;;;;;;;;;;5056085;28;20045;-76
2023/05/05 07:35:11;;;;;;;10.63;4.18;;;;;;;;;;5060713;28;20106;-78
2023/05/05 07:37:37;;;;;;;9.77;4.30;;;;;;;;;;5070871;28;20059;-77
2023/05/05 07:40:04;;;;;;;8.40;4.38;;;;;;;;;;5056667;28;20044;-76
2023/05/05 07:42:30;;;;;;;14.00;4.93;;;;;;;;;;5071179;28;20048;-76
2023/05/05 07:44:57;;;;;;;10.07;3.67;;;;;;;;;;5054408;28;20132;-76
2023/05/05 07:47:23;;;;;;;8.37;3.50;;;;;;;;;;5066279;28;20056;-77
2023/05/05 07:49:50;;;;;;;12.00;3.85;;;;;;;;;;5062076;28;20067;-77
2023/05/05 07:52:16;;;;;;;12.10;3.97;;;;;;;;;;5069716;28;20110;-77
2023/05/05 07:54:44;;;;;;;13.10;3.38;;;;;;;;;;5053880;28;20044;-77
2023/05/05 07:57:10;;;;;;;8.68;3.42;;;;;;;;;;5071013;28;20105;-76
2023/05/05 07:59:39;;;;;;;10.57;3.53;;;;;;;;;;5059265;28;20044;-76
2023/05/05 08:02:06;;;;;;;11.75;3.63;;;;;;;;;;5058436;28;20455;-77
2023/05/05 08:04:32;;;;;;;10.05;3.67;;;;;;;;;;5060104;28;20060;-76
2023/05/05 08:06:59;;;;;;;11.30;3.42;;;;;;;;;;5050785;28;20451;-76
2023/05/05 08:09:25;;;;;;;7.28;2.88;;;;;;;;;;5066217;28;20056;-76
2023/05/05 08:11:51;;;;;;;10.07;2.80;;;;;;;;;;5057716;28;20592;-76
2023/05/05 08:14:18;;;;;;;7.55;2.83;;;;;;;;;;5054578;28;20471;-76
2023/05/05 08:16:44;;;;;;;8.05;2.88;;;;;;;;;;5054598;28;20098;-76
2023/05/05 08:19:11;;;;;;;6.28;2.83;;;;;;;;;;5054284;28;20496;-77
2023/05/05 08:21:54;;;;;;;8.63;2.60;;;;;;;;;;5043105;28;20120;-76
2023/05/05 08:24:21;;;;;;;;;;;;;;;;;;5053138;28;20048;-76
2023/05/05 08:26:48;;;;;;;10.00;3.30;;;;;;;;;;5069838;28;20347;-76
2023/05/05 08:29:14;;;;;;;9.90;3.10;;;;;;;;;;5054136;28;20067;-77
2023/05/05 08:31:40;;;;;;;12.57;3.60;;;;;;;;;;5054047;28;20286;-76
2023/05/05 08:34:07;;;;;;;7.45;2.97;;;;;;;;;;5054162;28;20500;-76
2023/05/05 08:36:33;;;;;;;9.20;2.80;;;;;;;;;;5054153;28;20568;-75
2023/05/05 08:39:00;;;;;;;10.60;2.95;;;;;;;;;;5054140;28;20055;-74
2023/05/05 08:41:26;;;;;;;10.17;2.43;;;;;;;;;;5068126;28;20523;-75
2023/05/05 08:43:53;;;;;;;7.43;2.08;;;;;;;;;;5058527;28;20555;-75
2023/05/05 08:46:20;;;;;;;9.95;2.28;;;;;;;;;;5054412;28;20437;-75
2023/05/05 08:48:47;;;;;;;9.57;2.45;;;;;;;;;;5056456;28;20559;-75
2023/05/05 08:51:13;;;;;;;;;;;;;;;;;;5074219;28;20295;-75
2023/05/05 08:53:57;;;;;;;10.13;2.40;;;;;;;;;;5073669;28;19928;-74
2023/05/05 08:56:25;;;;;;;9.65;1.90;;;;;;;;;;5067592;28;20477;-75
2023/05/05 08:58:52;;;;;;;10.35;2.53;;;;;;;;;;5072529;28;20055;-75
2023/05/05 09:01:18;;;;;;;7.25;2.05;;;;;;;;;;5063489;28;20508;-75
2023/05/05 09:03:45;;;;;;;6.80;1.83;;;;;;;;;;5073377;28;20068;-75
2023/05/05 09:06:12;;;;;;;6.70;2.08;;;;;;;;;;5072610;28;20102;-75
2023/05/05 09:08:38;;;;;;;7.97;2.07;;;;;;;;;;5073620;28;20049;-75
2023/05/05 09:11:05;;;;;;;8.10;1.97;;;;;;;;;;5073457;28;20496;-75
2023/05/05 09:13:31;;;;;;;7.90;2.03;;;;;;;;;;5062142;28;20056;-75
2023/05/05 09:15:58;;;;;;;6.97;2.07;;;;;;;;;;5070136;28;20502;-75
2023/05/05 09:18:25;;;;;;;7.68;1.60;;;;;;;;;;5068484;28;20484;-75
2023/05/05 09:20:51;;;;;;;8.77;1.93;;;;;;;;;;5070382;28;20128;-74
2023/05/05 09:23:18;;;;;;;7.93;2.03;;;;;;;;;;5069964;28;20528;-73
2023/05/05 09:25:45;;;;;;;;;;;;;;;;;;5073979;28;20083;-74
2023/05/05 09:28:15;;;;;;;7.17;2.03;;;;;;;;;;5073128;28;20347;-74
2023/05/05 09:30:46;;;;;;;8.25;2.15;;;;;;;;;;5073075;28;20140;-75
2023/05/05 09:33:12;;;;;;;11.18;2.08;;;;;;;;;;5072186;28;20051;-74
2023/05/05 09:35:49;;;;;;;7.85;1.83;;;;;;;;;;5073154;28;20063;-75
2023/05/05 09:38:16;;;;;;;8.60;2.00;;;;;;;;;;5057872;28;20134;-75
2023/05/05 09:40:44;;;;;;;9.13;2.13;;;;;;;;;;5069169;28;20605;-74
2023/05/05 09:43:11;;;;;;;7.80;2.00;;;;;;;;;;5052419;28;20091;-74
2023/05/05 09:45:37;;;;;;;6.38;2.20;;;;;;;;;;5062722;28;20060;-74
2023/05/05 09:48:05;;;;;;;6.85;1.70;;;;;;;;;;5056560;28;20485;-74
2023/05/05 09:50:42;;;;;;;6.18;1.85;;;;;;;;;;5052722;28;20099;-74
2023/05/05 09:53:09;;;;;;;5.15;1.50;;;;;;;;;;5052217;28;20123;-74
2023/05/05 09:55:36;;;;;;;3.88;1.70;;;;;;;;;;5052718;28;20564;-74
2023/05/05 09:58:16;;;;;;;5.32;1.80;;;;;;;;;;5054758;28;20052;-74
2023/05/05 10:00:42;;;;;;;6.25;1.38;;;;;;;;;;5072557;28;20093;-76
2023/05/05 10:03:09;;;;;;;4.50;1.33;;;;;;;;;;5059171;28;20049;-76
2023/05/05 10:05:45;;;;;;;5.07;1.20;;;;;;;;;;5063065;28;20049;-75
2023/05/05 10:08:12;;;;;;;4.60;1.42;;;;;;;;;;5052474;28;20565;-74
2023/05/05 10:11:05;;;;;;;5.22;1.40;;;;;;;;;;5051235;28;20044;-74
2023/05/05 10:13:34;;;;;;;4.90;1.45;;;;;;;;;;5051097;28;20385;-73
2023/05/05 10:16:02;;;;;;;5.35;1.30;;;;;;;;;;5057102;28;20455;-73
2023/05/05 10:18:30;;;;;;;4.43;1.63;;;;;;;;;;5065430;28;20391;-73
2023/05/05 10:20:57;;;;;;;6.38;1.40;;;;;;;;;;5043261;28;20096;-74
2023/05/05 10:23:37;;;;;;;3.58;1.20;;;;;;;;;;5047983;28;20515;-74
2023/05/05 10:26:08;;;;;;;3.25;1.02;;;;;;;;;;5061168;28;20059;-74
2023/05/05 10:28:43;;;;;;;5.95;1.35;;;;;;;;;;5056961;28;20103;-74
2023/05/05 10:31:15;;;;;;;2.72;0.95;;;;;;;;;;5069698;28;20127;-74
2023/05/05 10:33:54;;;;;;;4.07;1.00;;;;;;;;;;5071088;28;20044;-74
2023/05/05 10:36:21;;;;;;;3.58;1.02;;;;;;;;;;5071197;28;20110;-74
2023/05/05 10:38:49;;;;;;;4.47;0.98;;;;;;;;;;5072540;28;20084;-74
2023/05/05 10:41:17;;;;;;;3.53;1.20;;;;;;;;;;5072292;28;20076;-74
2023/05/05 10:43:44;;;;;;;6.20;1.13;;;;;;;;;;5072554;28;20132;-74
2023/05/05 10:46:11;;;;;;;7.15;1.65;;;;;;;;;;5072385;28;20080;-74
2023/05/05 10:48:43;;;;;;;6.57;1.80;;;;;;;;;;5072345;28;20052;-74
2023/05/05 10:51:28;;;;;;;6.20;1.90;;;;;;;;;;5071622;28;20399;-74
2023/05/05 10:54:15;;;;;;;7.07;1.75;;;;;;;;;;5072247;28;20049;-74
2023/05/05 10:56:42;;;;;;;7.30;1.92;;;;;;;;;;5068969;28;20048;-74
2023/05/05 10:59:27;;;;;;;9.35;2.30;;;;;;;;;;5046145;28;20044;-74
2023/05/05 11:01:53;;;;;;;9.23;2.70;;;;;;;;;;5066863;28;20044;-73
2023/05/05 11:04:21;;;;;;;7.77;2.40;;;;;;;;;;5054038;28;20051;-75
2023/05/05 11:07:06;;;;;;;8.63;2.17;;;;;;;;;;5051130;28;20084;-74
2023/05/05 11:09:35;;;;;;;6.68;1.83;;;;;;;;;;5059987;28;20055;-74
2023/05/05 11:12:03;;;;;;;9.30;2.78;;;;;;;;;;5064774;28;20055;-74
2023/05/05 11:14:30;;;;;;;9.88;2.83;;;;;;;;;;5061515;28;20131;-75
2023/05/05 11:16:56;;;;;;;11.17;2.87;;;;;;;;;;5056341;28;20136;-74
2023/05/05 11:19:41;;;;;;;8.13;2.10;;;;;;;;;;5058357;28;20048;-74
2023/05/05 11:22:08;;;;;;;11.77;2.25;;;;;;;;;;5055299;28;20048;-73
2023/05/05 11:24:38;;;;;;;8.85;2.30;;;;;;;;;;5049490;28;20465;-73
2023/05/05 11:27:05;;;;;;;10.00;2.40;;;;;;;;;;5050974;28;20126;-74
2023/05/05 11:29:51;;;;;;;9.85;2.75;;;;;;;;;;5051071;28;20052;-74
2023/05/05 11:32:18;;;;;;;9.38;2.15;;;;;;;;;;5063432;28;20052;-74
2023/05/05 11:34:48;;;;;;;12.10;2.78;;;;;;;;;;5070964;28;20670;-74
2023/05/05 11:37:15;;;;;;;10.68;2.30;;;;;;;;;;5071053;28;20672;-73
2023/05/05 11:39:54;;;;;;;10.20;2.65;;;;;;;;;;5069709;28;20082;-73
2023/05/05 11:42:27;;;;;;;11.05;2.15;;;;;;;;;;5071215;28;20408;-73
2023/05/05 11:44:54;;;;;;;7.68;2.42;;;;;;;;;;5060453;28;20106;-73
2023/05/05 11:47:20;;;;;;;9.40;2.10;;;;;;;;;;5052602;28;20561;-73
2023/05/05 11:49:48;;;;;;;11.68;2.70;;;;;;;;;;5063961;28;20049;-72
2023/05/05 11:52:14;;;;;;;7.80;2.17;;;;;;;;;;5067203;28;20045;-74
2023/05/05 11:54:46;;;;;;;10.63;2.17;;;;;;;;;;5061538;28;20051;-75
2023/05/05 11:57:19;;;;;;;9.85;2.40;;;;;;;;;;5056613;28;20467;-73
2023/05/05 11:59:51;;;;;;;9.00;2.40;;;;;;;;;;5054496;28;20091;-73
2023/05/05 12:02:18;;;;;;;11.25;2.92;;;;;;;;;;5054859;28;20049;-73
2023/05/05 12:04:45;;;;;;;10.73;2.33;;;;;;;;;;5065210;28;20492;-73
2023/05/05 12:07:16;;;;;;;10.38;2.50;;;;;;;;;;5058409;28;20053;-73
2023/05/05 12:09:45;;;;;;;10.88;2.50;;;;;;;;;;5054302;28;20496;-73
2023/05/05 12:12:12;;;;;;;10.45;2.78;;;;;;;;;;5054678;28;20048;-72
2023/05/05 12:14:51;;;;;;;11.45;2.50;;;;;;;;;;5055014;28;20492;-73
2023/05/05 12:17:19;;;;;;;13.88;2.53;;;;;;;;;;5054783;28;20098;-73
2023/05/05 12:19:52;;;;;;;10.93;2.22;;;;;;;;;;5052451;28;20048;-74
2023/05/05 12:22:20;;;;;;;10.13;2.58;;;;;;;;;;5053883;28;20686;-74
2023/05/05 12:24:53;;;;;;;9.77;2.45;;;;;;;;;;5052558;28;20053;-73
2023/05/05 12:27:20;;;;;;;10.45;2.60;;;;;;;;;;5051876;28;20049;-73
2023/05/05 12:29:46;;;;;;;9.40;2.13;;;;;;;;;;5049567;28;21706;-73
2023/05/05 12:32:39;;;;;;;8.63;2.30;;;;;;;;;;5055652;28;20128;-74
2023/05/05 12:35:06;;;;;;;9.13;2.20;;;;;;;;;;5051997;28;20053;-73
2023/05/05 12:37:33;;;;;;;8.95;2.33;;;;;;;;;;5050034;28;20506;-72
2023/05/05 12:39:59;;;;;;;8.43;2.08;;;;;;;;;;5054882;28;20036;-74
2023/05/05 12:42:25;;;;;;;8.27;2.20;;;;;;;;;;5054033;28;20087;-74
2023/05/05 12:44:52;;;;;;;8.20;2.17;;;;;;;;;;5058105;28;20047;-74
2023/05/05 12:47:29;;;;;;;6.07;2.00;;;;;;;;;;5056197;28;20048;-74
2023/05/05 12:49:56;;;;;;;10.52;2.60;;;;;;;;;;5046504;28;20052;-73
2023/05/05 12:52:22;;;;;;;;;;;;;;;;;;5054457;28;20053;-74
2023/05/05 12:54:52;;;;;;;9.15;2.17;;;;;;;;;;5072585;28;19934;-74
2023/05/05 12:57:20;;;;;;;8.30;1.85;;;;;;;;;;5052884;28;20053;-74
2023/05/05 12:59:47;;;;;;;7.70;1.90;;;;;;;;;;5053768;28;20496;-74
2023/05/05 13:02:13;;;;;;;9.13;2.08;;;;;;;;;;5040485;28;20140;-74
2023/05/05 13:04:40;;;;;;;;;;;;;;;;;;5054616;28;20048;-73
2023/05/05 13:07:08;;;;;;;8.73;2.58;;;;;;;;;;5042431;28;19927;-73
2023/05/05 13:09:35;;;;;;;7.60;2.00;;;;;;;;;;5052979;28;20115;-74
2023/05/05 13:12:02;;;;;;;8.90;2.05;;;;;;;;;;5048855;28;20399;-74
2023/05/05 13:14:31;;;;;;;7.28;1.60;;;;;;;;;;5073985;28;20399;-73
2023/05/05 13:16:58;;;;;;;6.15;1.63;;;;;;;;;;5054874;28;20501;-73
2023/05/05 13:19:24;;;;;;;5.43;1.45;;;;;;;;;;5053780;28;20051;-70
2023/05/05 13:21:51;;;;;;;5.63;1.63;;;;;;;;;;5052071;28;20051;-74
2023/05/05 13:24:17;;;;;;;7.55;1.63;;;;;;;;;;5051847;28;20048;-73
2023/05/05 13:27:03;;;;;;;4.32;1.55;;;;;;;;;;5042587;28;20500;-73
2023/05/05 13:29:30;;;;;;;5.68;1.70;;;;;;;;;;5063835;28;20566;-74
2023/05/05 13:31:57;;;;;;;7.82;1.77;;;;;;;;;;5048622;28;20047;-73
2023/05/05 13:34:23;;;;;;;;;;;;;;;;;;5072039;28;20083;-73
2023/05/05 13:36:50;;;;;;;6.07;1.83;;;;;;;;;;5058254;28;19931;-73
2023/05/05 13:39:17;;;;;;;7.55;1.80;;;;;;;;;;5071658;28;20392;-73
2023/05/05 13:41:44;;;;;;;5.90;1.90;;;;;;;;;;5051710;28;20124;-72
2023/05/05 13:44:10;;;;;;;;;;;;;;;;;;5072939;28;20076;-73
2023/05/05 13:46:36;;;;;;;7.65;2.05;;;;;;;;;;5052058;28;19928;-72
2023/05/05 13:49:03;;;;;;;5.90;1.95;;;;;;;;;;5073612;28;20052;-72
2023/05/05 13:51:29;;;;;;;9.65;2.53;;;;;;;;;;5060292;28;20095;-72
2023/05/05 13:53:56;;;;;;;8.25;2.60;;;;;;;;;;5073129;28;20132;-72
2023/05/05 13:56:24;;;;;;;7.53;2.17;;;;;;;;;;5061207;28;20133;-72
2023/05/05 13:58:51;;;;;;;9.48;2.22;;;;;;;;;;5072134;28;20048;-72
2023/05/05 14:01:18;;;;;;;10.10;2.50;;;;;;;;;;5052711;28;20099;-71
2023/05/05 14:03:44;;;;;;;10.93;2.85;;;;;;;;;;5066733;28;20048;-71
2023/05/05 14:06:10;;;;;;;13.63;2.75;;;;;;;;;;5054750;28;20133;-72
2023/05/05 14:08:37;;;;;;;11.07;2.70;;;;;;;;;;5063398;28;20154;-71
2023/05/05 14:11:03;;;;;;;8.23;2.37;;;;;;;;;;5070222;28;20297;-71
2023/05/05 14:13:30;;;;;;;12.38;2.45;;;;;;;;;;5071798;28;20281;-71
2023/05/05 14:15:57;;;;;;;10.02;2.13;;;;;;;;;;5069328;28;20049;-72
2023/05/05 14:18:24;;;;;;;7.43;1.98;;;;;;;;;;5072897;28;20040;-72
2023/05/05 14:20:50;;;;;;;8.15;2.10;;;;;;;;;;5068476;28;20051;-72
2023/05/05 14:23:17;;;;;;;9.65;2.60;;;;;;;;;;5072048;28;20056;-72
2023/05/05 14:25:43;;;;;;;7.50;2.28;;;;;;;;;;5050976;28;20049;-73
2023/05/05 14:28:09;;;;;;;8.80;2.58;;;;;;;;;;5052072;28;20128;-73
2023/05/05 14:30:36;;;;;;;;;;;;;;;;;;5051528;28;20364;-72
2023/05/05 14:33:02;;;;;;;8.63;2.50;;;;;;;;;;5056803;28;19925;-73
2023/05/05 14:35:29;;;;;;;7.90;1.90;;;;;;;;;;5050779;28;20063;-73
2023/05/05 14:37:56;;;;;;;9.30;2.38;;;;;;;;;;5052374;28;20092;-72
2023/05/05 14:40:22;;;;;;;8.35;2.03;;;;;;;;;;5057741;28;20071;-72
2023/05/05 14:42:49;;;;;;;7.85;2.20;;;;;;;;;;5057458;28;20535;-72
2023/05/05 14:45:16;;;;;;;7.18;2.42;;;;;;;;;;5069069;28;20045;-72